sensor_id;sensor_type;location;lat;lon;timestamp;pressure;altitude;pressure_sealevel;temperature;humidity
45864;BME280;31579;52.354;16.974;2022-08-18T00:00:03;-92.5;;;-146.1;100.0
45864;BME280;31579;52.354;16.974;2022-08-18T00:01:05;-85.0;;;-146.1;100.0
45864;BME280;31579;52.354;16.974;2022-08-18T00:03:13;-74.5;;;-146.1;100.0
45864;BME280;31579;52.354;16.974;2022-08-18T00:04:17;-75.0;;;-146.1;100.0
45864;BME280;31579;52.354;16.974;2022-08-18T00:05:21;-76.8;;;-146.1;100.0
45864;BME280;31579;52.354;16.974;2022-08-18T00:06:26;-77.9;;;-146.1;100.0
45864;BME280;31579;52.354;16.974;2022-08-18T00:07:30;-77.9;;;-146.1;100.0
45864;BME280;31579;52.354;16.974;2022-08-18T00:08:33;-74.6;;;-146.1;100.0
45864;BME280;31579;52.354;16.974;2022-08-18T00:09:38;-74.7;;;-146.1;100.0
45864;BME280;31579;52.354;16.974;2022-08-18T00:10:41;-75.2;;;-146.1;100.0
45864;BME280;31579;52.354;16.974;2022-08-18T00:11:45;-79.1;;;-146.1;100.0
45864;BME280;31579;52.354;16.974;2022-08-18T00:12:49;-80.2;;;-146.1;100.0
45864;BME280;31579;52.354;16.974;2022-08-18T00:13:53;-81.5;;;-146.1;100.0
45864;BME280;31579;52.354;16.974;2022-08-18T00:14:57;-83.5;;;-146.1;100.0
45864;BME280;31579;52.354;16.974;2022-08-18T00:16:01;-83.6;;;-146.1;100.0
45864;BME280;31579;52.354;16.974;2022-08-18T00:17:03;-24.3;;;-146.1;100.0
45864;BME280;31579;52.354;16.974;2022-08-18T00:18:08;-85.0;;;-146.1;100.0
45864;BME280;31579;52.354;16.974;2022-08-18T00:19:12;-86.6;;;-146.1;100.0
45864;BME280;31579;52.354;16.974;2022-08-18T00:20:18;-85.6;;;-146.1;100.0
45864;BME280;31579;52.354;16.974;2022-08-18T00:21:20;-83.3;;;-146.1;100.0
45864;BME280;31579;52.354;16.974;2022-08-18T00:22:24;-83.2;;;-146.1;100.0
45864;BME280;31579;52.354;16.974;2022-08-18T00:23:28;-79.8;;;-146.1;100.0
45864;BME280;31579;52.354;16.974;2022-08-18T00:24:32;-76.2;;;-146.1;100.0
45864;BME280;31579;52.354;16.974;2022-08-18T00:25:36;-73.6;;;-146.1;100.0
45864;BME280;31579;52.354;16.974;2022-08-18T00:26:40;-72.1;;;-146.1;100.0
45864;BME280;31579;52.354;16.974;2022-08-18T00:27:44;-70.9;;;-146.1;100.0
45864;BME280;31579;52.354;16.974;2022-08-18T00:28:48;-70.7;;;-146.1;100.0
45864;BME280;31579;52.354;16.974;2022-08-18T00:29:53;-66.9;;;-146.1;100.0
45864;BME280;31579;52.354;16.974;2022-08-18T00:30:57;-67.0;;;-146.1;100.0
45864;BME280;31579;52.354;16.974;2022-08-18T00:32:10;-61.7;;;-146.1;100.0
45864;BME280;31579;52.354;16.974;2022-08-18T00:33:03;23.0;;;-146.1;100.0
45864;BME280;31579;52.354;16.974;2022-08-18T00:34:05;34.4;;;-146.1;100.0
45864;BME280;31579;52.354;16.974;2022-08-18T00:35:12;-40.1;;;-146.1;100.0
45864;BME280;31579;52.354;16.974;2022-08-18T00:36:13;-33.0;;;-146.1;100.0
45864;BME280;31579;52.354;16.974;2022-08-18T00:37:17;-26.5;;;-146.1;100.0
45864;BME280;31579;52.354;16.974;2022-08-18T00:38:21;-26.6;;;-146.1;100.0
45864;BME280;31579;52.354;16.974;2022-08-18T00:39:25;-27.7;;;-146.1;100.0
45864;BME280;31579;52.354;16.974;2022-08-18T00:40:32;-25.2;;;-146.1;100.0
45864;BME280;31579;52.354;16.974;2022-08-18T00:41:33;-28.2;;;-146.1;100.0
45864;BME280;31579;52.354;16.974;2022-08-18T00:42:39;-25.3;;;-146.1;100.0
45864;BME280;31579;52.354;16.974;2022-08-18T00:43:43;-24.2;;;-146.1;100.0
45864;BME280;31579;52.354;16.974;2022-08-18T00:44:45;-24.3;;;-146.1;100.0
45864;BME280;31579;52.354;16.974;2022-08-18T00:45:49;-25.0;;;-146.1;100.0
45864;BME280;31579;52.354;16.974;2022-08-18T00:46:53;-26.3;;;-146.1;100.0
45864;BME280;31579;52.354;16.974;2022-08-18T00:47:57;-27.5;;;-146.1;100.0
45864;BME280;31579;52.354;16.974;2022-08-18T00:49:02;-27.2;;;-146.1;100.0
45864;BME280;31579;52.354;16.974;2022-08-18T00:50:05;-25.7;;;-146.1;100.0
45864;BME280;31579;52.354;16.974;2022-08-18T00:51:11;-24.5;;;-146.1;100.0
45864;BME280;31579;52.354;16.974;2022-08-18T00:52:19;-20.9;;;-146.1;100.0
45864;BME280;31579;52.354;16.974;2022-08-18T00:53:28;-17.2;;;-146.1;100.0
45864;BME280;31579;52.354;16.974;2022-08-18T00:54:28;-2.6;;;-146.1;100.0
45864;BME280;31579;52.354;16.974;2022-08-18T00:55:31;8.0;;;-146.1;100.0
45864;BME280;31579;52.354;16.974;2022-08-18T00:56:37;9.8;;;-146.1;100.0
45864;BME280;31579;52.354;16.974;2022-08-18T00:57:39;15.2;;;-146.1;100.0
45864;BME280;31579;52.354;16.974;2022-08-18T00:58:45;25.2;;;-146.1;100.0
45864;BME280;31579;52.354;16.974;2022-08-18T00:59:53;28.6;;;-146.1;100.0
45864;BME280;31579;52.354;16.974;2022-08-18T01:00:51;35.9;;;-146.1;100.0
45864;BME280;31579;52.354;16.974;2022-08-18T01:01:57;52.8;;;-146.1;100.0
45864;BME280;31579;52.354;16.974;2022-08-18T01:03:01;63.1;;;-146.1;100.0
45864;BME280;31579;52.354;16.974;2022-08-18T01:04:07;72.5;;;-146.1;100.0
45864;BME280;31579;52.354;16.974;2022-08-18T01:05:12;77.6;;;-146.1;100.0
45864;BME280;31579;52.354;16.974;2022-08-18T01:06:16;78.6;;;-146.1;100.0
45864;BME280;31579;52.354;16.974;2022-08-18T01:08:21;102.2;;;-146.1;100.0
45864;BME280;31579;52.354;16.974;2022-08-18T01:09:25;107.8;;;-146.1;100.0
45864;BME280;31579;52.354;16.974;2022-08-18T01:10:29;109.5;;;-146.1;100.0
45864;BME280;31579;52.354;16.974;2022-08-18T01:11:34;109.6;;;-146.1;100.0
45864;BME280;31579;52.354;16.974;2022-08-18T01:12:37;120.9;;;-146.1;100.0
45864;BME280;31579;52.354;16.974;2022-08-18T01:13:41;135.9;;;-146.1;100.0
45864;BME280;31579;52.354;16.974;2022-08-18T01:14:45;141.5;;;-146.1;100.0
45864;BME280;31579;52.354;16.974;2022-08-18T01:15:49;154.2;;;-146.1;100.0
45864;BME280;31579;52.354;16.974;2022-08-18T01:16:53;167.2;;;-146.1;100.0
45864;BME280;31579;52.354;16.974;2022-08-18T01:17:58;180.7;;;-146.1;100.0
45864;BME280;31579;52.354;16.974;2022-08-18T01:19:01;196.4;;;-146.1;100.0
45864;BME280;31579;52.354;16.974;2022-08-18T01:20:06;210.5;;;-146.1;100.0
45864;BME280;31579;52.354;16.974;2022-08-18T01:22:18;232.6;;;-146.1;100.0
45864;BME280;31579;52.354;16.974;2022-08-18T01:23:18;243.2;;;-146.1;100.0
45864;BME280;31579;52.354;16.974;2022-08-18T01:24:26;256.8;;;-146.1;100.0
45864;BME280;31579;52.354;16.974;2022-08-18T01:25:25;271.1;;;-146.1;100.0
45864;BME280;31579;52.354;16.974;2022-08-18T01:26:29;283.2;;;-146.1;100.0
45864;BME280;31579;52.354;16.974;2022-08-18T01:27:33;289.8;;;-146.1;100.0
45864;BME280;31579;52.354;16.974;2022-08-18T01:28:39;294.1;;;-146.1;100.0
45864;BME280;31579;52.354;16.974;2022-08-18T01:29:41;301.3;;;-146.1;100.0
45864;BME280;31579;52.354;16.974;2022-08-18T01:30:48;310.4;;;-146.1;100.0
45864;BME280;31579;52.354;16.974;2022-08-18T01:31:51;318.5;;;-146.1;100.0
45864;BME280;31579;52.354;16.974;2022-08-18T01:32:55;325.7;;;-146.1;100.0
45864;BME280;31579;52.354;16.974;2022-08-18T01:34:12;363.4;;;-146.1;100.0
45864;BME280;31579;52.354;16.974;2022-08-18T01:35:16;346.8;;;-146.1;100.0
45864;BME280;31579;52.354;16.974;2022-08-18T01:36:20;356.1;;;-146.1;100.0
45864;BME280;31579;52.354;16.974;2022-08-18T01:37:24;363.5;;;-146.1;100.0
45864;BME280;31579;52.354;16.974;2022-08-18T01:38:28;369.4;;;-146.1;100.0
45864;BME280;31579;52.354;16.974;2022-08-18T01:39:32;376.1;;;-146.1;100.0
45864;BME280;31579;52.354;16.974;2022-08-18T01:40:36;382.9;;;-146.1;100.0
45864;BME280;31579;52.354;16.974;2022-08-18T01:41:38;415.9;;;-146.1;100.0
45864;BME280;31579;52.354;16.974;2022-08-18T01:42:43;423.7;;;-146.1;100.0
45864;BME280;31579;52.354;16.974;2022-08-18T01:43:48;426.4;;;-146.1;100.0
45864;BME280;31579;52.354;16.974;2022-08-18T01:44:52;429.3;;;-146.1;100.0
45864;BME280;31579;52.354;16.974;2022-08-18T01:45:56;432.7;;;-146.1;100.0
45864;BME280;31579;52.354;16.974;2022-08-18T01:47:01;436.6;;;-146.1;100.0
45864;BME280;31579;52.354;16.974;2022-08-18T01:48:06;436.8;;;-146.1;100.0
45864;BME280;31579;52.354;16.974;2022-08-18T01:49:09;451.1;;;-146.1;100.0
45864;BME280;31579;52.354;16.974;2022-08-18T01:50:13;440.2;;;-146.1;100.0
45864;BME280;31579;52.354;16.974;2022-08-18T01:51:25;426.5;;;-146.1;100.0
45864;BME280;31579;52.354;16.974;2022-08-18T01:52:29;445.6;;;-146.1;100.0
45864;BME280;31579;52.354;16.974;2022-08-18T01:53:33;447.8;;;-146.1;100.0
45864;BME280;31579;52.354;16.974;2022-08-18T01:54:37;449.9;;;-146.1;100.0
45864;BME280;31579;52.354;16.974;2022-08-18T01:55:41;451.9;;;-146.1;100.0
45864;BME280;31579;52.354;16.974;2022-08-18T01:56:45;454.3;;;-146.1;100.0
45864;BME280;31579;52.354;16.974;2022-08-18T01:57:49;456.2;;;-146.1;100.0
45864;BME280;31579;52.354;16.974;2022-08-18T01:58:53;458.3;;;-146.1;100.0
45864;BME280;31579;52.354;16.974;2022-08-18T01:59:57;459.0;;;-146.1;100.0
45864;BME280;31579;52.354;16.974;2022-08-18T02:01:01;460.4;;;-146.1;100.0
45864;BME280;31579;52.354;16.974;2022-08-18T02:02:06;461.3;;;-146.1;100.0
45864;BME280;31579;52.354;16.974;2022-08-18T02:03:11;463.2;;;-146.1;100.0
45864;BME280;31579;52.354;16.974;2022-08-18T02:04:15;464.3;;;-146.1;100.0
45864;BME280;31579;52.354;16.974;2022-08-18T02:05:19;465.7;;;-146.1;100.0
45864;BME280;31579;52.354;16.974;2022-08-18T02:06:20;474.6;;;-146.1;100.0
45864;BME280;31579;52.354;16.974;2022-08-18T02:07:25;468.1;;;-146.1;100.0
45864;BME280;31579;52.354;16.974;2022-08-18T02:08:29;469.2;;;-146.1;100.0
45864;BME280;31579;52.354;16.974;2022-08-18T02:09:33;470.3;;;-146.1;100.0
45864;BME280;31579;52.354;16.974;2022-08-18T02:10:37;472.0;;;-146.1;100.0
45864;BME280;31579;52.354;16.974;2022-08-18T02:11:41;473.0;;;-146.1;100.0
45864;BME280;31579;52.354;16.974;2022-08-18T02:12:45;474.2;;;-146.1;100.0
45864;BME280;31579;52.354;16.974;2022-08-18T02:13:49;475.4;;;-146.1;100.0
45864;BME280;31579;52.354;16.974;2022-08-18T02:14:53;476.7;;;-146.1;100.0
45864;BME280;31579;52.354;16.974;2022-08-18T02:15:57;477.7;;;-146.1;100.0
45864;BME280;31579;52.354;16.974;2022-08-18T02:17:10;471.8;;;-146.1;100.0
45864;BME280;31579;52.354;16.974;2022-08-18T02:18:14;479.0;;;-146.1;100.0
45864;BME280;31579;52.354;16.974;2022-08-18T02:19:17;480.2;;;-146.1;100.0
45864;BME280;31579;52.354;16.974;2022-08-18T02:20:21;481.1;;;-146.1;100.0
45864;BME280;31579;52.354;16.974;2022-08-18T02:21:25;481.7;;;-146.1;100.0
45864;BME280;31579;52.354;16.974;2022-08-18T02:22:29;482.5;;;-146.1;100.0
45864;BME280;31579;52.354;16.974;2022-08-18T02:23:33;483.4;;;-146.1;100.0
45864;BME280;31579;52.354;16.974;2022-08-18T02:24:37;483.9;;;-146.1;100.0
45864;BME280;31579;52.354;16.974;2022-08-18T02:25:41;484.6;;;-146.1;100.0
45864;BME280;31579;52.354;16.974;2022-08-18T02:26:45;484.9;;;-146.1;100.0
45864;BME280;31579;52.354;16.974;2022-08-18T02:27:49;485.3;;;-146.1;100.0
45864;BME280;31579;52.354;16.974;2022-08-18T02:28:53;486.0;;;-146.1;100.0
45864;BME280;31579;52.354;16.974;2022-08-18T02:29:59;486.7;;;-146.1;100.0
45864;BME280;31579;52.354;16.974;2022-08-18T02:31:05;487.5;;;-146.1;100.0
45864;BME280;31579;52.354;16.974;2022-08-18T02:32:06;488.3;;;-146.1;100.0
45864;BME280;31579;52.354;16.974;2022-08-18T02:33:10;488.8;;;-146.1;100.0
45864;BME280;31579;52.354;16.974;2022-08-18T02:34:14;489.3;;;-146.1;100.0
45864;BME280;31579;52.354;16.974;2022-08-18T02:35:18;490.0;;;-146.1;100.0
45864;BME280;31579;52.354;16.974;2022-08-18T02:36:22;490.4;;;-146.1;100.0
45864;BME280;31579;52.354;16.974;2022-08-18T02:37:26;490.7;;;-146.1;100.0
45864;BME280;31579;52.354;16.974;2022-08-18T02:38:30;491.1;;;-146.1;100.0
45864;BME280;31579;52.354;16.974;2022-08-18T02:39:34;491.6;;;-146.1;100.0
45864;BME280;31579;52.354;16.974;2022-08-18T02:40:38;491.9;;;-146.1;100.0
45864;BME280;31579;52.354;16.974;2022-08-18T02:41:42;492.2;;;-146.1;100.0
45864;BME280;31579;52.354;16.974;2022-08-18T02:42:46;492.8;;;-146.1;100.0
45864;BME280;31579;52.354;16.974;2022-08-18T02:43:50;493.0;;;-146.1;100.0
45864;BME280;31579;52.354;16.974;2022-08-18T02:44:54;493.3;;;-146.1;100.0
45864;BME280;31579;52.354;16.974;2022-08-18T02:45:58;493.8;;;-146.1;100.0
45864;BME280;31579;52.354;16.974;2022-08-18T02:47:02;494.1;;;-146.1;100.0
45864;BME280;31579;52.354;16.974;2022-08-18T02:48:06;494.5;;;-146.1;100.0
45864;BME280;31579;52.354;16.974;2022-08-18T02:49:10;494.7;;;-146.1;100.0
45864;BME280;31579;52.354;16.974;2022-08-18T02:50:14;495.1;;;-146.1;100.0
45864;BME280;31579;52.354;16.974;2022-08-18T02:51:18;495.4;;;-146.1;100.0
45864;BME280;31579;52.354;16.974;2022-08-18T02:52:22;495.8;;;-146.1;100.0
45864;BME280;31579;52.354;16.974;2022-08-18T02:53:26;496.1;;;-146.1;100.0
45864;BME280;31579;52.354;16.974;2022-08-18T02:54:30;496.5;;;-146.1;100.0
45864;BME280;31579;52.354;16.974;2022-08-18T02:55:35;496.6;;;-146.1;100.0
45864;BME280;31579;52.354;16.974;2022-08-18T02:56:39;497.0;;;-146.1;100.0
45864;BME280;31579;52.354;16.974;2022-08-18T02:57:44;497.2;;;-146.1;100.0
45864;BME280;31579;52.354;16.974;2022-08-18T02:58:47;497.4;;;-146.1;100.0
45864;BME280;31579;52.354;16.974;2022-08-18T02:59:52;497.9;;;-146.1;100.0
45864;BME280;31579;52.354;16.974;2022-08-18T03:00:56;498.1;;;-146.1;100.0
45864;BME280;31579;52.354;16.974;2022-08-18T03:02:00;498.3;;;-146.1;100.0
45864;BME280;31579;52.354;16.974;2022-08-18T03:03:05;498.4;;;-146.1;100.0
45864;BME280;31579;52.354;16.974;2022-08-18T03:04:10;498.7;;;-146.1;100.0
45864;BME280;31579;52.354;16.974;2022-08-18T03:05:14;499.1;;;-146.1;100.0
45864;BME280;31579;52.354;16.974;2022-08-18T03:06:18;499.3;;;-146.1;100.0
45864;BME280;31579;52.354;16.974;2022-08-18T03:07:22;499.3;;;-146.1;100.0
45864;BME280;31579;52.354;16.974;2022-08-18T03:08:26;499.9;;;-146.1;100.0
45864;BME280;31579;52.354;16.974;2022-08-18T03:09:30;500.0;;;-146.1;100.0
45864;BME280;31579;52.354;16.974;2022-08-18T03:10:34;500.1;;;-146.1;100.0
45864;BME280;31579;52.354;16.974;2022-08-18T03:11:38;500.2;;;-146.1;100.0
45864;BME280;31579;52.354;16.974;2022-08-18T03:12:42;500.1;;;-146.1;100.0
45864;BME280;31579;52.354;16.974;2022-08-18T03:13:46;499.8;;;-146.1;100.0
45864;BME280;31579;52.354;16.974;2022-08-18T03:14:50;499.6;;;-146.1;100.0
45864;BME280;31579;52.354;16.974;2022-08-18T03:15:54;498.9;;;-146.1;100.0
45864;BME280;31579;52.354;16.974;2022-08-18T03:16:59;498.5;;;-146.1;100.0
45864;BME280;31579;52.354;16.974;2022-08-18T03:18:03;497.5;;;-146.1;100.0
45864;BME280;31579;52.354;16.974;2022-08-18T03:19:07;496.6;;;-146.1;100.0
45864;BME280;31579;52.354;16.974;2022-08-18T03:20:11;495.7;;;-146.1;100.0
45864;BME280;31579;52.354;16.974;2022-08-18T03:21:18;495.0;;;-146.1;100.0
45864;BME280;31579;52.354;16.974;2022-08-18T03:22:19;494.1;;;-146.1;100.0
45864;BME280;31579;52.354;16.974;2022-08-18T03:23:23;493.0;;;-146.1;100.0
45864;BME280;31579;52.354;16.974;2022-08-18T03:24:27;491.6;;;-146.1;100.0
45864;BME280;31579;52.354;16.974;2022-08-18T03:25:31;491.3;;;-146.1;100.0
45864;BME280;31579;52.354;16.974;2022-08-18T03:26:39;489.8;;;-146.1;100.0
45864;BME280;31579;52.354;16.974;2022-08-18T03:27:39;488.3;;;-146.1;100.0
45864;BME280;31579;52.354;16.974;2022-08-18T03:28:44;487.4;;;-146.1;100.0
45864;BME280;31579;52.354;16.974;2022-08-18T03:29:47;486.3;;;-146.1;100.0
45864;BME280;31579;52.354;16.974;2022-08-18T03:30:51;485.4;;;-146.1;100.0
45864;BME280;31579;52.354;16.974;2022-08-18T03:31:55;486.1;;;-146.1;100.0
45864;BME280;31579;52.354;16.974;2022-08-18T03:32:59;487.7;;;-146.1;100.0
45864;BME280;31579;52.354;16.974;2022-08-18T03:34:04;489.4;;;-146.1;100.0
45864;BME280;31579;52.354;16.974;2022-08-18T03:35:07;491.0;;;-146.1;100.0
45864;BME280;31579;52.354;16.974;2022-08-18T03:36:13;492.6;;;-146.1;100.0
45864;BME280;31579;52.354;16.974;2022-08-18T03:37:15;494.2;;;-146.1;100.0
45864;BME280;31579;52.354;16.974;2022-08-18T03:38:19;495.4;;;-146.1;100.0
45864;BME280;31579;52.354;16.974;2022-08-18T03:39:23;496.7;;;-146.1;100.0
45864;BME280;31579;52.354;16.974;2022-08-18T03:40:27;497.5;;;-146.1;100.0
45864;BME280;31579;52.354;16.974;2022-08-18T03:41:31;498.3;;;-146.1;100.0
45864;BME280;31579;52.354;16.974;2022-08-18T03:42:35;499.1;;;-146.1;100.0
45864;BME280;31579;52.354;16.974;2022-08-18T03:43:39;499.5;;;-146.1;100.0
45864;BME280;31579;52.354;16.974;2022-08-18T03:44:43;499.0;;;-146.1;100.0
45864;BME280;31579;52.354;16.974;2022-08-18T03:45:47;497.4;;;-146.1;100.0
45864;BME280;31579;52.354;16.974;2022-08-18T03:46:51;495.7;;;-146.1;100.0
45864;BME280;31579;52.354;16.974;2022-08-18T03:47:55;495.2;;;-146.1;100.0
45864;BME280;31579;52.354;16.974;2022-08-18T03:48:59;494.5;;;-146.1;100.0
45864;BME280;31579;52.354;16.974;2022-08-18T03:50:03;494.0;;;-146.1;100.0
45864;BME280;31579;52.354;16.974;2022-08-18T03:51:07;495.9;;;-146.1;100.0
45864;BME280;31579;52.354;16.974;2022-08-18T03:52:10;493.1;;;-146.1;100.0
45864;BME280;31579;52.354;16.974;2022-08-18T03:53:14;492.0;;;-146.1;100.0
45864;BME280;31579;52.354;16.974;2022-08-18T03:54:18;490.0;;;-146.1;100.0
45864;BME280;31579;52.354;16.974;2022-08-18T03:55:22;487.9;;;-146.1;100.0
45864;BME280;31579;52.354;16.974;2022-08-18T03:56:34;486.7;;;-146.1;100.0
45864;BME280;31579;52.354;16.974;2022-08-18T03:57:31;485.3;;;-146.1;100.0
45864;BME280;31579;52.354;16.974;2022-08-18T03:58:35;485.0;;;-146.1;100.0
45864;BME280;31579;52.354;16.974;2022-08-18T03:59:39;485.2;;;-146.1;100.0
45864;BME280;31579;52.354;16.974;2022-08-18T04:00:43;486.3;;;-146.1;100.0
45864;BME280;31579;52.354;16.974;2022-08-18T04:01:48;487.6;;;-146.1;100.0
45864;BME280;31579;52.354;16.974;2022-08-18T04:02:51;489.0;;;-146.1;100.0
45864;BME280;31579;52.354;16.974;2022-08-18T04:03:57;490.1;;;-146.1;100.0
45864;BME280;31579;52.354;16.974;2022-08-18T04:04:59;491.2;;;-146.1;100.0
45864;BME280;31579;52.354;16.974;2022-08-18T04:06:03;491.9;;;-146.1;100.0
45864;BME280;31579;52.354;16.974;2022-08-18T04:07:10;491.5;;;-146.1;100.0
45864;BME280;31579;52.354;16.974;2022-08-18T04:08:13;490.0;;;-146.1;100.0
45864;BME280;31579;52.354;16.974;2022-08-18T04:09:17;488.8;;;-146.1;100.0
45864;BME280;31579;52.354;16.974;2022-08-18T04:10:22;487.9;;;-146.1;100.0
45864;BME280;31579;52.354;16.974;2022-08-18T04:11:25;487.1;;;-146.1;100.0
45864;BME280;31579;52.354;16.974;2022-08-18T04:12:29;486.2;;;-146.1;100.0
45864;BME280;31579;52.354;16.974;2022-08-18T04:13:33;484.9;;;-146.1;100.0
45864;BME280;31579;52.354;16.974;2022-08-18T04:14:38;483.6;;;-146.1;100.0
45864;BME280;31579;52.354;16.974;2022-08-18T04:15:41;481.9;;;-146.1;100.0
45864;BME280;31579;52.354;16.974;2022-08-18T04:16:45;480.9;;;-146.1;100.0
45864;BME280;31579;52.354;16.974;2022-08-18T04:17:49;482.6;;;-146.1;100.0
45864;BME280;31579;52.354;16.974;2022-08-18T04:18:53;484.3;;;-146.1;100.0
45864;BME280;31579;52.354;16.974;2022-08-18T04:19:55;489.1;;;-146.1;100.0
45864;BME280;31579;52.354;16.974;2022-08-18T04:21:01;484.6;;;-146.1;100.0
45864;BME280;31579;52.354;16.974;2022-08-18T04:22:04;486.1;;;-146.1;100.0
45864;BME280;31579;52.354;16.974;2022-08-18T04:23:08;483.5;;;-146.1;100.0
45864;BME280;31579;52.354;16.974;2022-08-18T04:24:13;482.7;;;-146.1;100.0
45864;BME280;31579;52.354;16.974;2022-08-18T04:25:17;482.9;;;-146.1;100.0
45864;BME280;31579;52.354;16.974;2022-08-18T04:26:21;484.4;;;-146.1;100.0
45864;BME280;31579;52.354;16.974;2022-08-18T04:27:26;485.4;;;-146.1;100.0
45864;BME280;31579;52.354;16.974;2022-08-18T04:28:29;485.4;;;-146.1;100.0
45864;BME280;31579;52.354;16.974;2022-08-18T04:29:33;485.2;;;-146.1;100.0
45864;BME280;31579;52.354;16.974;2022-08-18T04:30:37;485.9;;;-146.1;100.0
45864;BME280;31579;52.354;16.974;2022-08-18T04:31:42;486.6;;;-146.1;100.0
45864;BME280;31579;52.354;16.974;2022-08-18T04:32:46;487.6;;;-146.1;100.0
45864;BME280;31579;52.354;16.974;2022-08-18T04:33:51;487.9;;;-146.1;100.0
45864;BME280;31579;52.354;16.974;2022-08-18T04:34:53;492.1;;;-146.1;100.0
45864;BME280;31579;52.354;16.974;2022-08-18T04:35:57;488.0;;;-146.1;100.0
45864;BME280;31579;52.354;16.974;2022-08-18T04:37:00;490.8;;;-146.1;100.0
45864;BME280;31579;52.354;16.974;2022-08-18T04:38:05;485.4;;;-146.1;100.0
45864;BME280;31579;52.354;16.974;2022-08-18T04:39:10;483.2;;;-146.1;100.0
45864;BME280;31579;52.354;16.974;2022-08-18T04:40:13;481.4;;;-146.1;100.0
45864;BME280;31579;52.354;16.974;2022-08-18T04:41:17;480.4;;;-146.1;100.0
45864;BME280;31579;52.354;16.974;2022-08-18T04:42:21;478.4;;;-146.1;100.0
45864;BME280;31579;52.354;16.974;2022-08-18T04:43:25;476.6;;;-146.1;100.0
45864;BME280;31579;52.354;16.974;2022-08-18T04:44:29;477.7;;;-146.1;100.0
45864;BME280;31579;52.354;16.974;2022-08-18T04:45:33;479.6;;;-146.1;100.0
45864;BME280;31579;52.354;16.974;2022-08-18T04:46:38;482.9;;;-146.1;100.0
45864;BME280;31579;52.354;16.974;2022-08-18T04:47:41;486.3;;;-146.1;100.0
45864;BME280;31579;52.354;16.974;2022-08-18T04:48:45;488.5;;;-146.1;100.0
45864;BME280;31579;52.354;16.974;2022-08-18T04:49:49;490.8;;;-146.1;100.0
45864;BME280;31579;52.354;16.974;2022-08-18T04:50:53;492.1;;;-146.1;100.0
45864;BME280;31579;52.354;16.974;2022-08-18T04:51:57;493.1;;;-146.1;100.0
45864;BME280;31579;52.354;16.974;2022-08-18T04:53:01;493.9;;;-146.1;100.0
45864;BME280;31579;52.354;16.974;2022-08-18T04:54:03;498.5;;;-146.1;100.0
45864;BME280;31579;52.354;16.974;2022-08-18T04:55:13;495.0;;;-146.1;100.0
45864;BME280;31579;52.354;16.974;2022-08-18T04:57:20;500.6;;;-146.1;100.0
45864;BME280;31579;52.354;16.974;2022-08-18T04:58:25;497.7;;;-146.1;100.0
45864;BME280;31579;52.354;16.974;2022-08-18T04:59:29;497.6;;;-146.1;100.0
45864;BME280;31579;52.354;16.974;2022-08-18T05:00:33;498.3;;;-146.1;100.0
45864;BME280;31579;52.354;16.974;2022-08-18T05:01:51;497.1;;;-146.1;100.0
45864;BME280;31579;52.354;16.974;2022-08-18T05:02:55;497.7;;;-146.1;100.0
45864;BME280;31579;52.354;16.974;2022-08-18T05:03:59;498.0;;;-146.1;100.0
45864;BME280;31579;52.354;16.974;2022-08-18T05:06:07;498.2;;;-146.1;100.0
45864;BME280;31579;52.354;16.974;2022-08-18T05:07:12;498.2;;;-146.1;100.0
45864;BME280;31579;52.354;16.974;2022-08-18T05:08:15;498.1;;;-146.1;100.0
45864;BME280;31579;52.354;16.974;2022-08-18T05:09:20;498.5;;;-146.1;100.0
45864;BME280;31579;52.354;16.974;2022-08-18T05:10:23;498.5;;;-146.1;100.0
45864;BME280;31579;52.354;16.974;2022-08-18T05:11:28;498.9;;;-146.1;100.0
45864;BME280;31579;52.354;16.974;2022-08-18T05:12:31;498.5;;;-146.1;100.0
45864;BME280;31579;52.354;16.974;2022-08-18T05:13:35;498.3;;;-146.1;100.0
45864;BME280;31579;52.354;16.974;2022-08-18T05:14:40;498.3;;;-146.1;100.0
45864;BME280;31579;52.354;16.974;2022-08-18T05:15:43;497.7;;;-146.1;100.0
45864;BME280;31579;52.354;16.974;2022-08-18T05:16:47;497.1;;;-146.1;100.0
45864;BME280;31579;52.354;16.974;2022-08-18T05:17:52;497.1;;;-146.1;100.0
45864;BME280;31579;52.354;16.974;2022-08-18T05:18:56;496.3;;;-146.1;100.0
45864;BME280;31579;52.354;16.974;2022-08-18T05:20:00;495.4;;;-146.1;100.0
45864;BME280;31579;52.354;16.974;2022-08-18T05:21:06;496.0;;;-146.1;100.0
45864;BME280;31579;52.354;16.974;2022-08-18T05:22:10;495.5;;;-146.1;100.0
45864;BME280;31579;52.354;16.974;2022-08-18T05:23:13;494.3;;;-146.1;100.0
45864;BME280;31579;52.354;16.974;2022-08-18T05:24:18;493.9;;;-146.1;100.0
45864;BME280;31579;52.354;16.974;2022-08-18T05:25:21;493.9;;;-146.1;100.0
45864;BME280;31579;52.354;16.974;2022-08-18T05:26:26;494.4;;;-146.1;100.0
45864;BME280;31579;52.354;16.974;2022-08-18T05:27:32;494.2;;;-146.1;100.0
45864;BME280;31579;52.354;16.974;2022-08-18T05:28:34;494.3;;;-146.1;100.0
45864;BME280;31579;52.354;16.974;2022-08-18T05:29:38;493.4;;;-146.1;100.0
45864;BME280;31579;52.354;16.974;2022-08-18T05:30:42;492.5;;;-146.1;100.0
45864;BME280;31579;52.354;16.974;2022-08-18T05:31:48;489.8;;;-146.1;100.0
45864;BME280;31579;52.354;16.974;2022-08-18T05:32:51;491.0;;;-146.1;100.0
45864;BME280;31579;52.354;16.974;2022-08-18T05:33:55;489.7;;;-146.1;100.0
45864;BME280;31579;52.354;16.974;2022-08-18T05:35:02;488.4;;;-146.1;100.0
45864;BME280;31579;52.354;16.974;2022-08-18T05:36:04;488.8;;;-146.1;100.0
45864;BME280;31579;52.354;16.974;2022-08-18T05:37:12;488.1;;;-146.1;100.0
45864;BME280;31579;52.354;16.974;2022-08-18T05:40:19;484.5;;;-146.1;100.0
45864;BME280;31579;52.354;16.974;2022-08-18T05:42:29;482.9;;;-146.1;100.0
45864;BME280;31579;52.354;16.974;2022-08-18T05:43:31;482.6;;;-146.1;100.0
45864;BME280;31579;52.354;16.974;2022-08-18T05:44:38;483.1;;;-146.1;100.0
45864;BME280;31579;52.354;16.974;2022-08-18T05:45:39;481.9;;;-146.1;100.0
45864;BME280;31579;52.354;16.974;2022-08-18T05:47:46;480.9;;;-146.1;100.0
45864;BME280;31579;52.354;16.974;2022-08-18T05:48:51;478.0;;;-146.1;100.0
45864;BME280;31579;52.354;16.974;2022-08-18T05:49:56;476.7;;;-146.1;100.0
45864;BME280;31579;52.354;16.974;2022-08-18T05:51:01;476.6;;;-146.1;100.0
45864;BME280;31579;52.354;16.974;2022-08-18T05:52:13;470.2;;;-146.1;100.0
45864;BME280;31579;52.354;16.974;2022-08-18T05:53:15;470.3;;;-146.1;100.0
45864;BME280;31579;52.354;16.974;2022-08-18T05:54:20;468.8;;;-146.1;100.0